sensor_id;sensor_type;location;lat;lon;timestamp;temperature;humidity
3550;DHT22;45572;48.804;8.330;2023-07-16T00:01:53;20.40;96.80
3550;DHT22;45572;48.804;8.330;2023-07-16T00:04:21;20.40;96.80
3550;DHT22;45572;48.804;8.330;2023-07-16T00:06:49;20.50;96.80
3550;DHT22;45572;48.804;8.330;2023-07-16T00:09:18;20.60;96.80
3550;DHT22;45572;48.804;8.330;2023-07-16T00:11:46;20.60;96.80
3550;DHT22;45572;48.804;8.330;2023-07-16T00:14:14;20.60;96.80
3550;DHT22;45572;48.804;8.330;2023-07-16T00:16:41;20.40;96.80
3550;DHT22;45572;48.804;8.330;2023-07-16T00:19:10;20.20;96.80
3550;DHT22;45572;48.804;8.330;2023-07-16T00:21:38;20.10;96.80
3550;DHT22;45572;48.804;8.330;2023-07-16T00:24:06;20.10;96.80
3550;DHT22;45572;48.804;8.330;2023-07-16T00:26:35;20.30;96.80
3550;DHT22;45572;48.804;8.330;2023-07-16T00:29:03;20.30;96.80
3550;DHT22;45572;48.804;8.330;2023-07-16T00:31:31;20.40;96.80
3550;DHT22;45572;48.804;8.330;2023-07-16T00:33:59;20.40;96.80
3550;DHT22;45572;48.804;8.330;2023-07-16T00:36:27;20.40;96.80
3550;DHT22;45572;48.804;8.330;2023-07-16T00:38:55;20.50;96.80
3550;DHT22;45572;48.804;8.330;2023-07-16T00:41:23;20.50;96.80
3550;DHT22;45572;48.804;8.330;2023-07-16T00:43:52;20.50;96.40
3550;DHT22;45572;48.804;8.330;2023-07-16T00:46:21;20.40;96.00
3550;DHT22;45572;48.804;8.330;2023-07-16T00:48:49;20.30;94.90
3550;DHT22;45572;48.804;8.330;2023-07-16T00:51:18;20.10;91.90
3550;DHT22;45572;48.804;8.330;2023-07-16T00:53:46;19.90;92.30
3550;DHT22;45572;48.804;8.330;2023-07-16T00:56:16;19.90;93.90
3550;DHT22;45572;48.804;8.330;2023-07-16T00:58:44;19.80;93.80
3550;DHT22;45572;48.804;8.330;2023-07-16T01:01:13;19.70;94.30
3550;DHT22;45572;48.804;8.330;2023-07-16T01:03:41;19.70;94.40
3550;DHT22;45572;48.804;8.330;2023-07-16T01:06:13;19.70;94.70
3550;DHT22;45572;48.804;8.330;2023-07-16T01:08:44;19.60;94.60
3550;DHT22;45572;48.804;8.330;2023-07-16T01:11:13;19.60;94.40
3550;DHT22;45572;48.804;8.330;2023-07-16T01:13:43;19.60;93.10
3550;DHT22;45572;48.804;8.330;2023-07-16T01:16:19;19.60;93.90
3550;DHT22;45572;48.804;8.330;2023-07-16T01:18:50;19.60;94.60
3550;DHT22;45572;48.804;8.330;2023-07-16T01:21:20;19.70;94.60
3550;DHT22;45572;48.804;8.330;2023-07-16T01:24:09;19.70;94.40
3550;DHT22;45572;48.804;8.330;2023-07-16T01:26:57;19.60;94.20
3550;DHT22;45572;48.804;8.330;2023-07-16T01:29:33;19.60;93.90
3550;DHT22;45572;48.804;8.330;2023-07-16T01:32:04;19.60;94.90
3550;DHT22;45572;48.804;8.330;2023-07-16T01:34:36;19.60;94.20
3550;DHT22;45572;48.804;8.330;2023-07-16T01:37:04;19.60;93.40
3550;DHT22;45572;48.804;8.330;2023-07-16T01:39:32;19.40;92.40
3550;DHT22;45572;48.804;8.330;2023-07-16T01:42:01;19.30;92.00
3550;DHT22;45572;48.804;8.330;2023-07-16T01:44:29;19.20;91.30
3550;DHT22;45572;48.804;8.330;2023-07-16T01:47:05;19.10;92.20
3550;DHT22;45572;48.804;8.330;2023-07-16T01:49:33;19.10;93.10
3550;DHT22;45572;48.804;8.330;2023-07-16T01:52:03;19.10;91.70
3550;DHT22;45572;48.804;8.330;2023-07-16T01:54:32;19.00;91.40
3550;DHT22;45572;48.804;8.330;2023-07-16T01:57:00;18.90;91.00
3550;DHT22;45572;48.804;8.330;2023-07-16T01:59:28;18.90;91.00
3550;DHT22;45572;48.804;8.330;2023-07-16T02:01:56;19.00;91.50
3550;DHT22;45572;48.804;8.330;2023-07-16T02:04:25;19.00;91.90
3550;DHT22;45572;48.804;8.330;2023-07-16T02:06:53;19.00;90.90
3550;DHT22;45572;48.804;8.330;2023-07-16T02:09:21;18.90;89.50
3550;DHT22;45572;48.804;8.330;2023-07-16T02:11:49;19.00;89.20
3550;DHT22;45572;48.804;8.330;2023-07-16T02:14:16;19.00;89.60
3550;DHT22;45572;48.804;8.330;2023-07-16T02:16:44;19.00;89.90
3550;DHT22;45572;48.804;8.330;2023-07-16T02:19:12;19.10;90.40
3550;DHT22;45572;48.804;8.330;2023-07-16T02:21:41;19.10;89.00
3550;DHT22;45572;48.804;8.330;2023-07-16T02:24:09;19.00;90.30
3550;DHT22;45572;48.804;8.330;2023-07-16T02:26:37;19.00;90.00
3550;DHT22;45572;48.804;8.330;2023-07-16T02:29:04;19.00;89.60
3550;DHT22;45572;48.804;8.330;2023-07-16T02:31:35;19.10;89.10
3550;DHT22;45572;48.804;8.330;2023-07-16T02:34:03;19.10;89.60
3550;DHT22;45572;48.804;8.330;2023-07-16T02:36:32;19.10;89.30
3550;DHT22;45572;48.804;8.330;2023-07-16T02:39:01;19.00;89.10
3550;DHT22;45572;48.804;8.330;2023-07-16T02:41:29;19.10;89.20
3550;DHT22;45572;48.804;8.330;2023-07-16T02:43:59;19.10;89.50
3550;DHT22;45572;48.804;8.330;2023-07-16T02:46:27;19.10;89.50
3550;DHT22;45572;48.804;8.330;2023-07-16T02:48:55;19.10;89.90
3550;DHT22;45572;48.804;8.330;2023-07-16T02:51:23;19.20;90.20
3550;DHT22;45572;48.804;8.330;2023-07-16T02:53:51;19.10;90.30
3550;DHT22;45572;48.804;8.330;2023-07-16T02:56:20;19.20;90.40
3550;DHT22;45572;48.804;8.330;2023-07-16T02:58:48;19.30;90.30
3550;DHT22;45572;48.804;8.330;2023-07-16T03:01:15;19.30;90.90
3550;DHT22;45572;48.804;8.330;2023-07-16T03:03:43;19.30;90.50
3550;DHT22;45572;48.804;8.330;2023-07-16T03:06:11;19.20;90.50
3550;DHT22;45572;48.804;8.330;2023-07-16T03:08:39;19.10;90.40
3550;DHT22;45572;48.804;8.330;2023-07-16T03:11:07;19.10;90.90
3550;DHT22;45572;48.804;8.330;2023-07-16T03:13:37;19.10;90.70
3550;DHT22;45572;48.804;8.330;2023-07-16T03:16:06;19.10;90.50
3550;DHT22;45572;48.804;8.330;2023-07-16T03:18:34;19.10;90.10
3550;DHT22;45572;48.804;8.330;2023-07-16T03:21:02;19.10;90.10
3550;DHT22;45572;48.804;8.330;2023-07-16T03:23:30;19.10;90.10
3550;DHT22;45572;48.804;8.330;2023-07-16T03:25:57;19.00;89.40
3550;DHT22;45572;48.804;8.330;2023-07-16T03:28:26;19.00;88.90
3550;DHT22;45572;48.804;8.330;2023-07-16T03:30:56;19.10;89.20
3550;DHT22;45572;48.804;8.330;2023-07-16T03:33:24;19.10;89.60
3550;DHT22;45572;48.804;8.330;2023-07-16T03:35:51;19.10;89.70
3550;DHT22;45572;48.804;8.330;2023-07-16T03:38:19;19.00;89.20
3550;DHT22;45572;48.804;8.330;2023-07-16T03:40:48;18.90;89.60
3550;DHT22;45572;48.804;8.330;2023-07-16T03:43:17;19.00;89.30
3550;DHT22;45572;48.804;8.330;2023-07-16T03:45:45;19.10;89.50
3550;DHT22;45572;48.804;8.330;2023-07-16T03:48:15;19.00;89.40
3550;DHT22;45572;48.804;8.330;2023-07-16T03:50:43;19.00;88.50
3550;DHT22;45572;48.804;8.330;2023-07-16T03:53:11;19.00;88.50
3550;DHT22;45572;48.804;8.330;2023-07-16T03:55:38;19.10;88.80
3550;DHT22;45572;48.804;8.330;2023-07-16T03:58:06;19.20;88.70
3550;DHT22;45572;48.804;8.330;2023-07-16T04:00:34;19.20;88.30
3550;DHT22;45572;48.804;8.330;2023-07-16T04:03:02;19.20;87.80
3550;DHT22;45572;48.804;8.330;2023-07-16T04:05:32;19.20;87.40
3550;DHT22;45572;48.804;8.330;2023-07-16T04:08:00;19.30;87.70
3550;DHT22;45572;48.804;8.330;2023-07-16T04:10:28;19.30;87.70
3550;DHT22;45572;48.804;8.330;2023-07-16T04:12:56;19.30;87.10
3550;DHT22;45572;48.804;8.330;2023-07-16T04:15:23;19.30;87.70
3550;DHT22;45572;48.804;8.330;2023-07-16T04:17:51;19.30;88.00
3550;DHT22;45572;48.804;8.330;2023-07-16T04:20:19;19.30;87.30
3550;DHT22;45572;48.804;8.330;2023-07-16T04:22:48;19.20;87.50
3550;DHT22;45572;48.804;8.330;2023-07-16T04:25:16;19.20;87.80
3550;DHT22;45572;48.804;8.330;2023-07-16T04:27:45;19.20;87.90
3550;DHT22;45572;48.804;8.330;2023-07-16T04:30:13;19.30;88.10
3550;DHT22;45572;48.804;8.330;2023-07-16T04:32:40;19.30;87.80
3550;DHT22;45572;48.804;8.330;2023-07-16T04:35:08;19.30;87.00
3550;DHT22;45572;48.804;8.330;2023-07-16T04:37:36;19.40;87.60
3550;DHT22;45572;48.804;8.330;2023-07-16T04:40:06;19.50;87.40
3550;DHT22;45572;48.804;8.330;2023-07-16T04:42:34;19.50;87.30
3550;DHT22;45572;48.804;8.330;2023-07-16T04:45:03;19.50;86.90
3550;DHT22;45572;48.804;8.330;2023-07-16T04:47:31;19.40;86.50
3550;DHT22;45572;48.804;8.330;2023-07-16T04:49:59;19.40;86.60
3550;DHT22;45572;48.804;8.330;2023-07-16T04:52:28;19.40;86.60
3550;DHT22;45572;48.804;8.330;2023-07-16T04:54:55;19.50;86.50
3550;DHT22;45572;48.804;8.330;2023-07-16T04:57:25;19.50;86.40
3550;DHT22;45572;48.804;8.330;2023-07-16T04:59:53;19.50;85.80
3550;DHT22;45572;48.804;8.330;2023-07-16T05:02:21;19.70;85.90
3550;DHT22;45572;48.804;8.330;2023-07-16T05:04:49;19.60;86.10
3550;DHT22;45572;48.804;8.330;2023-07-16T05:07:17;19.60;85.80
3550;DHT22;45572;48.804;8.330;2023-07-16T05:09:45;19.70;85.70
3550;DHT22;45572;48.804;8.330;2023-07-16T05:12:12;19.60;85.60
3550;DHT22;45572;48.804;8.330;2023-07-16T05:14:46;19.70;85.70
3550;DHT22;45572;48.804;8.330;2023-07-16T05:17:14;19.70;84.90
3550;DHT22;45572;48.804;8.330;2023-07-16T05:19:42;19.70;85.10
3550;DHT22;45572;48.804;8.330;2023-07-16T05:22:10;19.80;85.10
3550;DHT22;45572;48.804;8.330;2023-07-16T05:24:38;19.80;85.10
3550;DHT22;45572;48.804;8.330;2023-07-16T05:27:06;19.90;84.80
3550;DHT22;45572;48.804;8.330;2023-07-16T05:29:34;19.80;84.90
3550;DHT22;45572;48.804;8.330;2023-07-16T05:32:03;19.90;84.60
3550;DHT22;45572;48.804;8.330;2023-07-16T05:34:31;19.80;85.00
3550;DHT22;45572;48.804;8.330;2023-07-16T05:37:00;19.80;84.80
3550;DHT22;45572;48.804;8.330;2023-07-16T05:39:28;19.90;85.40
3550;DHT22;45572;48.804;8.330;2023-07-16T05:41:56;19.90;85.00
3550;DHT22;45572;48.804;8.330;2023-07-16T05:44:23;19.90;84.40
3550;DHT22;45572;48.804;8.330;2023-07-16T05:46:51;20.00;84.30
3550;DHT22;45572;48.804;8.330;2023-07-16T05:49:20;20.00;83.80
3550;DHT22;45572;48.804;8.330;2023-07-16T05:51:48;20.20;84.20
3550;DHT22;45572;48.804;8.330;2023-07-16T05:54:16;20.20;83.70
3550;DHT22;45572;48.804;8.330;2023-07-16T05:56:44;20.20;83.10
3550;DHT22;45572;48.804;8.330;2023-07-16T05:59:11;20.30;82.70
3550;DHT22;45572;48.804;8.330;2023-07-16T06:01:39;20.20;83.20
3550;DHT22;45572;48.804;8.330;2023-07-16T06:04:07;20.20;83.60
3550;DHT22;45572;48.804;8.330;2023-07-16T06:06:36;20.20;83.30
3550;DHT22;45572;48.804;8.330;2023-07-16T06:09:04;20.30;83.20
3550;DHT22;45572;48.804;8.330;2023-07-16T06:11:32;20.10;82.60
3550;DHT22;45572;48.804;8.330;2023-07-16T06:13:59;20.10;83.30
3550;DHT22;45572;48.804;8.330;2023-07-16T06:16:27;20.10;83.60
3550;DHT22;45572;48.804;8.330;2023-07-16T06:18:55;20.20;83.80
3550;DHT22;45572;48.804;8.330;2023-07-16T06:21:23;20.10;82.70
3550;DHT22;45572;48.804;8.330;2023-07-16T06:23:52;20.10;83.20
3550;DHT22;45572;48.804;8.330;2023-07-16T06:26:20;20.30;82.30
3550;DHT22;45572;48.804;8.330;2023-07-16T06:28:47;20.30;82.50
3550;DHT22;45572;48.804;8.330;2023-07-16T06:31:16;20.50;82.70
3550;DHT22;45572;48.804;8.330;2023-07-16T06:33:44;20.60;83.00
3550;DHT22;45572;48.804;8.330;2023-07-16T06:36:13;20.80;82.50
3550;DHT22;45572;48.804;8.330;2023-07-16T06:38:41;20.80;80.90
3550;DHT22;45572;48.804;8.330;2023-07-16T06:41:10;20.80;81.70
3550;DHT22;45572;48.804;8.330;2023-07-16T06:43:38;21.20;81.00
3550;DHT22;45572;48.804;8.330;2023-07-16T06:46:06;21.00;79.60
3550;DHT22;45572;48.804;8.330;2023-07-16T06:48:34;21.00;80.30
3550;DHT22;45572;48.804;8.330;2023-07-16T06:51:02;21.20;80.10
3550;DHT22;45572;48.804;8.330;2023-07-16T06:53:29;21.30;79.60
3550;DHT22;45572;48.804;8.330;2023-07-16T06:55:57;21.40;80.00
3550;DHT22;45572;48.804;8.330;2023-07-16T06:58:32;21.50;79.30
3550;DHT22;45572;48.804;8.330;2023-07-16T07:01:01;21.80;79.30
3550;DHT22;45572;48.804;8.330;2023-07-16T07:03:29;22.00;77.80
3550;DHT22;45572;48.804;8.330;2023-07-16T07:05:57;22.10;76.80
3550;DHT22;45572;48.804;8.330;2023-07-16T07:08:24;22.40;76.70
3550;DHT22;45572;48.804;8.330;2023-07-16T07:10:52;22.70;75.70
3550;DHT22;45572;48.804;8.330;2023-07-16T07:13:20;22.90;75.90
3550;DHT22;45572;48.804;8.330;2023-07-16T07:15:49;23.00;74.50
3550;DHT22;45572;48.804;8.330;2023-07-16T07:18:17;22.60;75.00
3550;DHT22;45572;48.804;8.330;2023-07-16T07:20:46;22.60;75.60
3550;DHT22;45572;48.804;8.330;2023-07-16T07:23:15;22.80;76.00
3550;DHT22;45572;48.804;8.330;2023-07-16T07:25:43;22.70;74.70
3550;DHT22;45572;48.804;8.330;2023-07-16T07:28:10;22.90;76.00
3550;DHT22;45572;48.804;8.330;2023-07-16T07:30:38;23.00;74.90
3550;DHT22;45572;48.804;8.330;2023-07-16T07:33:07;23.00;75.20
3550;DHT22;45572;48.804;8.330;2023-07-16T07:35:35;22.80;75.00
3550;DHT22;45572;48.804;8.330;2023-07-16T07:38:03;22.90;75.20
3550;DHT22;45572;48.804;8.330;2023-07-16T07:40:31;22.60;75.20
3550;DHT22;45572;48.804;8.330;2023-07-16T07:42:59;22.80;75.50
3550;DHT22;45572;48.804;8.330;2023-07-16T07:45:27;23.10;75.90
3550;DHT22;45572;48.804;8.330;2023-07-16T07:47:55;22.90;75.30
3550;DHT22;45572;48.804;8.330;2023-07-16T07:50:24;22.80;75.20
3550;DHT22;45572;48.804;8.330;2023-07-16T07:52:52;22.60;75.80
3550;DHT22;45572;48.804;8.330;2023-07-16T07:55:20;22.40;76.40
3550;DHT22;45572;48.804;8.330;2023-07-16T07:57:48;22.60;76.10
3550;DHT22;45572;48.804;8.330;2023-07-16T08:00:17;22.50;76.60
3550;DHT22;45572;48.804;8.330;2023-07-16T08:02:44;22.50;76.30
3550;DHT22;45572;48.804;8.330;2023-07-16T08:05:12;22.30;76.00
3550;DHT22;45572;48.804;8.330;2023-07-16T08:07:43;22.40;76.40
3550;DHT22;45572;48.804;8.330;2023-07-16T08:10:11;22.60;77.60
3550;DHT22;45572;48.804;8.330;2023-07-16T08:12:40;23.00;76.10
3550;DHT22;45572;48.804;8.330;2023-07-16T08:15:09;23.10;75.10
3550;DHT22;45572;48.804;8.330;2023-07-16T08:17:41;23.20;76.00
3550;DHT22;45572;48.804;8.330;2023-07-16T08:20:10;23.10;75.70
3550;DHT22;45572;48.804;8.330;2023-07-16T08:22:39;23.70;73.60
3550;DHT22;45572;48.804;8.330;2023-07-16T08:25:09;23.50;72.60
3550;DHT22;45572;48.804;8.330;2023-07-16T08:27:37;23.20;72.50
3550;DHT22;45572;48.804;8.330;2023-07-16T08:30:07;23.40;75.60
3550;DHT22;45572;48.804;8.330;2023-07-16T08:32:36;23.60;73.40
3550;DHT22;45572;48.804;8.330;2023-07-16T08:35:06;24.00;72.90
3550;DHT22;45572;48.804;8.330;2023-07-16T08:37:39;24.30;71.40
3550;DHT22;45572;48.804;8.330;2023-07-16T08:40:12;23.60;71.60
3550;DHT22;45572;48.804;8.330;2023-07-16T08:42:44;23.60;73.20
3550;DHT22;45572;48.804;8.330;2023-07-16T08:45:14;23.50;70.80
3550;DHT22;45572;48.804;8.330;2023-07-16T08:47:44;23.40;72.80
3550;DHT22;45572;48.804;8.330;2023-07-16T08:50:12;23.40;71.10
3550;DHT22;45572;48.804;8.330;2023-07-16T08:52:46;24.10;71.10
3550;DHT22;45572;48.804;8.330;2023-07-16T08:55:17;24.50;68.30
3550;DHT22;45572;48.804;8.330;2023-07-16T08:57:45;25.30;66.90
3550;DHT22;45572;48.804;8.330;2023-07-16T09:00:15;25.60;67.80
3550;DHT22;45572;48.804;8.330;2023-07-16T09:02:45;27.20;63.90
3550;DHT22;45572;48.804;8.330;2023-07-16T09:05:14;28.40;60.70
3550;DHT22;45572;48.804;8.330;2023-07-16T09:08:03;29.50;55.90
3550;DHT22;45572;48.804;8.330;2023-07-16T09:10:34;29.80;57.90
3550;DHT22;45572;48.804;8.330;2023-07-16T09:13:02;31.20;56.40
3550;DHT22;45572;48.804;8.330;2023-07-16T09:15:31;32.00;54.60
3550;DHT22;45572;48.804;8.330;2023-07-16T09:18:00;31.80;52.70
3550;DHT22;45572;48.804;8.330;2023-07-16T09:20:29;30.90;52.90
3550;DHT22;45572;48.804;8.330;2023-07-16T09:22:59;30.00;55.50
3550;DHT22;45572;48.804;8.330;2023-07-16T09:25:27;29.70;55.10
3550;DHT22;45572;48.804;8.330;2023-07-16T09:28:02;28.90;58.30
3550;DHT22;45572;48.804;8.330;2023-07-16T09:30:32;28.80;57.10
3550;DHT22;45572;48.804;8.330;2023-07-16T09:33:10;28.30;56.70
3550;DHT22;45572;48.804;8.330;2023-07-16T09:35:42;28.90;58.30
3550;DHT22;45572;48.804;8.330;2023-07-16T09:38:11;29.90;56.00
3550;DHT22;45572;48.804;8.330;2023-07-16T09:40:40;30.70;53.80
3550;DHT22;45572;48.804;8.330;2023-07-16T09:43:11;31.40;52.20
3550;DHT22;45572;48.804;8.330;2023-07-16T09:45:41;32.20;51.20
3550;DHT22;45572;48.804;8.330;2023-07-16T09:48:09;32.90;50.50
3550;DHT22;45572;48.804;8.330;2023-07-16T09:50:38;34.30;46.90
3550;DHT22;45572;48.804;8.330;2023-07-16T09:53:11;33.30;49.10
3550;DHT22;45572;48.804;8.330;2023-07-16T09:55:40;32.10;49.90
3550;DHT22;45572;48.804;8.330;2023-07-16T09:58:10;31.50;51.80
3550;DHT22;45572;48.804;8.330;2023-07-16T10:00:40;31.60;52.40
3550;DHT22;45572;48.804;8.330;2023-07-16T10:03:08;31.60;51.50
3550;DHT22;45572;48.804;8.330;2023-07-16T10:05:37;31.90;50.90
3550;DHT22;45572;48.804;8.330;2023-07-16T10:08:14;31.70;51.50
3550;DHT22;45572;48.804;8.330;2023-07-16T10:10:43;31.00;52.40
3550;DHT22;45572;48.804;8.330;2023-07-16T10:13:13;31.30;53.40
3550;DHT22;45572;48.804;8.330;2023-07-16T10:15:51;31.70;50.40
3550;DHT22;45572;48.804;8.330;2023-07-16T10:18:27;32.60;50.30
3550;DHT22;45572;48.804;8.330;2023-07-16T10:21:01;33.90;50.40
3550;DHT22;45572;48.804;8.330;2023-07-16T10:23:37;34.70;46.80
3550;DHT22;45572;48.804;8.330;2023-07-16T10:26:07;34.60;48.30
3550;DHT22;45572;48.804;8.330;2023-07-16T10:28:37;34.40;47.00
3550;DHT22;45572;48.804;8.330;2023-07-16T10:31:06;34.50;47.50
3550;DHT22;45572;48.804;8.330;2023-07-16T10:33:57;35.00;48.70
3550;DHT22;45572;48.804;8.330;2023-07-16T10:36:25;35.30;46.50
3550;DHT22;45572;48.804;8.330;2023-07-16T10:39:00;35.80;45.90
3550;DHT22;45572;48.804;8.330;2023-07-16T10:41:29;35.20;45.30
3550;DHT22;45572;48.804;8.330;2023-07-16T10:43:59;34.90;46.00
3550;DHT22;45572;48.804;8.330;2023-07-16T10:46:27;35.50;46.50
3550;DHT22;45572;48.804;8.330;2023-07-16T10:48:55;33.70;45.00
3550;DHT22;45572;48.804;8.330;2023-07-16T10:51:25;32.90;49.50
3550;DHT22;45572;48.804;8.330;2023-07-16T10:53:55;32.90;49.10
3550;DHT22;45572;48.804;8.330;2023-07-16T10:56:24;33.50;46.90
3550;DHT22;45572;48.804;8.330;2023-07-16T10:58:52;34.00;46.40
3550;DHT22;45572;48.804;8.330;2023-07-16T11:01:21;34.50;48.20
3550;DHT22;45572;48.804;8.330;2023-07-16T11:03:49;35.40;48.40
3550;DHT22;45572;48.804;8.330;2023-07-16T11:06:19;35.10;46.70
3550;DHT22;45572;48.804;8.330;2023-07-16T11:08:47;35.40;43.20
3550;DHT22;45572;48.804;8.330;2023-07-16T11:11:26;35.40;46.20
3550;DHT22;45572;48.804;8.330;2023-07-16T11:13:54;36.10;43.90
3550;DHT22;45572;48.804;8.330;2023-07-16T11:16:24;35.30;44.80
3550;DHT22;45572;48.804;8.330;2023-07-16T11:18:51;34.50;45.10
3550;DHT22;45572;48.804;8.330;2023-07-16T11:21:19;35.30;46.00
3550;DHT22;45572;48.804;8.330;2023-07-16T11:23:47;35.50;41.90
3550;DHT22;45572;48.804;8.330;2023-07-16T11:26:15;35.80;41.80
3550;DHT22;45572;48.804;8.330;2023-07-16T11:28:44;36.50;41.30
3550;DHT22;45572;48.804;8.330;2023-07-16T11:31:13;35.70;39.80
3550;DHT22;45572;48.804;8.330;2023-07-16T11:33:43;34.50;43.20
3550;DHT22;45572;48.804;8.330;2023-07-16T11:36:12;34.30;44.20
3550;DHT22;45572;48.804;8.330;2023-07-16T11:38:41;33.90;43.80
3550;DHT22;45572;48.804;8.330;2023-07-16T11:41:12;33.50;44.50
3550;DHT22;45572;48.804;8.330;2023-07-16T11:43:40;34.10;45.70
3550;DHT22;45572;48.804;8.330;2023-07-16T11:46:15;33.40;43.30
3550;DHT22;45572;48.804;8.330;2023-07-16T11:48:48;33.60;44.50
3550;DHT22;45572;48.804;8.330;2023-07-16T11:51:15;34.60;45.70
3550;DHT22;45572;48.804;8.330;2023-07-16T11:53:43;35.20;42.40
3550;DHT22;45572;48.804;8.330;2023-07-16T11:56:11;34.30;44.30
3550;DHT22;45572;48.804;8.330;2023-07-16T11:58:39;34.80;44.90
3550;DHT22;45572;48.804;8.330;2023-07-16T12:01:07;35.80;43.80
3550;DHT22;45572;48.804;8.330;2023-07-16T12:03:34;36.80;41.50
3550;DHT22;45572;48.804;8.330;2023-07-16T12:06:04;37.20;40.50
3550;DHT22;45572;48.804;8.330;2023-07-16T12:08:31;37.40;40.20
3550;DHT22;45572;48.804;8.330;2023-07-16T12:10:59;37.20;41.20
3550;DHT22;45572;48.804;8.330;2023-07-16T12:13:29;36.90;41.10
3550;DHT22;45572;48.804;8.330;2023-07-16T12:15:58;37.30;40.50
3550;DHT22;45572;48.804;8.330;2023-07-16T12:18:26;37.60;43.00
3550;DHT22;45572;48.804;8.330;2023-07-16T12:20:54;37.70;40.80
3550;DHT22;45572;48.804;8.330;2023-07-16T12:23:23;37.60;39.80
3550;DHT22;45572;48.804;8.330;2023-07-16T12:25:51;35.90;40.90
3550;DHT22;45572;48.804;8.330;2023-07-16T12:28:18;36.60;42.70
3550;DHT22;45572;48.804;8.330;2023-07-16T12:30:46;36.70;42.90
3550;DHT22;45572;48.804;8.330;2023-07-16T12:33:14;36.50;41.20
3550;DHT22;45572;48.804;8.330;2023-07-16T12:35:43;36.50;41.30
3550;DHT22;45572;48.804;8.330;2023-07-16T12:38:11;36.70;39.60
3550;DHT22;45572;48.804;8.330;2023-07-16T12:40:41;37.30;40.00
3550;DHT22;45572;48.804;8.330;2023-07-16T12:43:09;36.80;39.80
3550;DHT22;45572;48.804;8.330;2023-07-16T12:45:36;35.10;41.00
3550;DHT22;45572;48.804;8.330;2023-07-16T12:48:04;35.00;43.60
3550;DHT22;45572;48.804;8.330;2023-07-16T12:50:32;35.40;43.50
3550;DHT22;45572;48.804;8.330;2023-07-16T12:53:00;34.80;41.40
3550;DHT22;45572;48.804;8.330;2023-07-16T12:55:28;34.40;44.10
3550;DHT22;45572;48.804;8.330;2023-07-16T12:57:59;34.80;44.90
3550;DHT22;45572;48.804;8.330;2023-07-16T13:00:26;34.30;43.00
3550;DHT22;45572;48.804;8.330;2023-07-16T13:02:55;33.40;44.10
3550;DHT22;45572;48.804;8.330;2023-07-16T13:05:23;32.40;47.90
3550;DHT22;45572;48.804;8.330;2023-07-16T13:07:51;32.30;48.20
3550;DHT22;45572;48.804;8.330;2023-07-16T13:10:19;31.60;45.80
3550;DHT22;45572;48.804;8.330;2023-07-16T13:12:50;31.20;51.10
3550;DHT22;45572;48.804;8.330;2023-07-16T13:15:19;31.30;49.20
3550;DHT22;45572;48.804;8.330;2023-07-16T13:17:47;31.30;49.80
3550;DHT22;45572;48.804;8.330;2023-07-16T13:20:15;31.40;48.50
3550;DHT22;45572;48.804;8.330;2023-07-16T13:22:43;30.90;49.30
3550;DHT22;45572;48.804;8.330;2023-07-16T13:25:11;30.40;50.30
3550;DHT22;45572;48.804;8.330;2023-07-16T13:27:39;30.70;50.50
3550;DHT22;45572;48.804;8.330;2023-07-16T13:30:07;30.80;49.20
3550;DHT22;45572;48.804;8.330;2023-07-16T13:32:36;30.30;51.50
3550;DHT22;45572;48.804;8.330;2023-07-16T13:35:05;30.30;49.40
3550;DHT22;45572;48.804;8.330;2023-07-16T13:37:33;30.10;51.20
3550;DHT22;45572;48.804;8.330;2023-07-16T13:40:00;29.80;52.70
3550;DHT22;45572;48.804;8.330;2023-07-16T13:42:28;30.10;52.10
3550;DHT22;45572;48.804;8.330;2023-07-16T13:44:56;30.00;51.80
3550;DHT22;45572;48.804;8.330;2023-07-16T13:47:25;30.10;52.50
3550;DHT22;45572;48.804;8.330;2023-07-16T13:49:57;30.20;53.20
3550;DHT22;45572;48.804;8.330;2023-07-16T13:52:26;30.50;51.70
3550;DHT22;45572;48.804;8.330;2023-07-16T13:54:54;30.50;52.70
3550;DHT22;45572;48.804;8.330;2023-07-16T13:57:22;30.80;50.50
3550;DHT22;45572;48.804;8.330;2023-07-16T13:59:50;30.50;50.60
3550;DHT22;45572;48.804;8.330;2023-07-16T14:02:18;29.60;52.30
3550;DHT22;45572;48.804;8.330;2023-07-16T14:04:46;29.10;52.00
3550;DHT22;45572;48.804;8.330;2023-07-16T14:07:16;29.00;51.40
3550;DHT22;45572;48.804;8.330;2023-07-16T14:09:43;28.60;50.40
3550;DHT22;45572;48.804;8.330;2023-07-16T14:12:11;28.60;50.70
3550;DHT22;45572;48.804;8.330;2023-07-16T14:14:39;28.30;50.60
3550;DHT22;45572;48.804;8.330;2023-07-16T14:17:07;28.20;50.30
3550;DHT22;45572;48.804;8.330;2023-07-16T14:19:35;27.80;51.10
3550;DHT22;45572;48.804;8.330;2023-07-16T14:22:03;28.00;53.70
3550;DHT22;45572;48.804;8.330;2023-07-16T14:24:33;28.40;55.00
3550;DHT22;45572;48.804;8.330;2023-07-16T14:27:01;28.60;50.50
3550;DHT22;45572;48.804;8.330;2023-07-16T14:29:29;28.80;52.50
3550;DHT22;45572;48.804;8.330;2023-07-16T14:31:57;28.90;50.90
3550;DHT22;45572;48.804;8.330;2023-07-16T14:34:25;28.40;49.70
3550;DHT22;45572;48.804;8.330;2023-07-16T14:36:53;28.20;50.30
3550;DHT22;45572;48.804;8.330;2023-07-16T14:39:21;28.10;50.60
3550;DHT22;45572;48.804;8.330;2023-07-16T14:41:50;28.00;52.50
3550;DHT22;45572;48.804;8.330;2023-07-16T14:44:18;28.40;54.90
3550;DHT22;45572;48.804;8.330;2023-07-16T14:46:46;28.40;50.90
3550;DHT22;45572;48.804;8.330;2023-07-16T14:49:14;28.60;54.00
3550;DHT22;45572;48.804;8.330;2023-07-16T14:51:41;28.60;51.80
3550;DHT22;45572;48.804;8.330;2023-07-16T14:54:09;28.60;49.60
3550;DHT22;45572;48.804;8.330;2023-07-16T14:56:37;28.30;51.20
3550;DHT22;45572;48.804;8.330;2023-07-16T14:59:06;28.40;52.60
3550;DHT22;45572;48.804;8.330;2023-07-16T15:01:35;28.40;52.50
3550;DHT22;45572;48.804;8.330;2023-07-16T15:04:03;28.10;50.40
3550;DHT22;45572;48.804;8.330;2023-07-16T15:06:31;28.10;51.60
3550;DHT22;45572;48.804;8.330;2023-07-16T15:08:59;28.20;53.60
3550;DHT22;45572;48.804;8.330;2023-07-16T15:11:27;28.20;50.70
3550;DHT22;45572;48.804;8.330;2023-07-16T15:13:54;28.00;51.80
3550;DHT22;45572;48.804;8.330;2023-07-16T15:16:23;27.70;52.60
3550;DHT22;45572;48.804;8.330;2023-07-16T15:18:51;27.70;52.30
3550;DHT22;45572;48.804;8.330;2023-07-16T15:21:19;27.50;54.40
3550;DHT22;45572;48.804;8.330;2023-07-16T15:23:47;27.50;52.10
3550;DHT22;45572;48.804;8.330;2023-07-16T15:26:15;27.50;53.40
3550;DHT22;45572;48.804;8.330;2023-07-16T15:28:44;27.50;52.60
3550;DHT22;45572;48.804;8.330;2023-07-16T15:31:11;27.60;53.60
3550;DHT22;45572;48.804;8.330;2023-07-16T15:33:41;27.60;55.00
3550;DHT22;45572;48.804;8.330;2023-07-16T15:36:08;27.40;53.60
3550;DHT22;45572;48.804;8.330;2023-07-16T15:38:36;27.40;54.90
3550;DHT22;45572;48.804;8.330;2023-07-16T15:41:05;27.40;52.50
3550;DHT22;45572;48.804;8.330;2023-07-16T15:43:33;27.40;53.30
3550;DHT22;45572;48.804;8.330;2023-07-16T15:46:01;27.20;53.30
3550;DHT22;45572;48.804;8.330;2023-07-16T15:48:30;27.40;54.30
3550;DHT22;45572;48.804;8.330;2023-07-16T15:51:00;27.50;53.00
3550;DHT22;45572;48.804;8.330;2023-07-16T15:53:27;27.50;52.60
3550;DHT22;45572;48.804;8.330;2023-07-16T15:55:55;27.80;55.20